createdAt,value
2018-08-28T00:01:45.004Z,14.50
2018-08-28T00:03:49.076Z,14.60
2018-08-28T00:05:52.255Z,14.50
2018-08-28T00:07:55.556Z,14.50
2018-08-28T00:09:58.900Z,14.50
2018-08-28T00:12:02.167Z,14.50
2018-08-28T00:14:05.377Z,14.60
2018-08-28T00:16:08.900Z,14.60
2018-08-28T00:18:13.010Z,14.60
2018-08-28T00:20:16.192Z,14.50
2018-08-28T00:22:19.400Z,14.50
2018-08-28T00:24:22.557Z,14.50
2018-08-28T00:26:25.745Z,14.60
2018-08-28T00:28:29.444Z,14.60
2018-08-28T00:30:32.630Z,14.50
2018-08-28T00:32:35.824Z,14.60
2018-08-28T00:34:39.017Z,14.50
2018-08-28T00:36:42.516Z,14.60
2018-08-28T00:38:46.338Z,14.60
2018-08-28T00:40:49.501Z,14.50
2018-08-28T00:42:52.692Z,14.60
2018-08-28T00:44:56.425Z,14.60
2018-08-28T00:46:59.596Z,14.60
2018-08-28T00:49:03.173Z,14.60
2018-08-28T00:51:06.386Z,14.60
2018-08-28T00:53:09.565Z,14.70
2018-08-28T00:55:13.110Z,14.70
2018-08-28T00:57:16.328Z,14.70
2018-08-28T00:59:19.532Z,14.70
2018-08-28T01:01:23.244Z,14.70
2018-08-28T01:03:26.736Z,14.70
2018-08-28T01:05:30.260Z,14.70
2018-08-28T01:07:33.469Z,14.70
2018-08-28T01:09:36.749Z,14.70
2018-08-28T01:11:40.300Z,14.70
2018-08-28T01:13:43.565Z,14.70
2018-08-28T01:15:46.766Z,14.70
2018-08-28T01:17:50.284Z,14.60
2018-08-28T01:19:53.488Z,14.60
2018-08-28T01:21:56.669Z,14.60
2018-08-28T01:24:00.051Z,14.60
2018-08-28T01:26:03.228Z,14.60
2018-08-28T01:28:06.457Z,14.60
2018-08-28T01:30:09.957Z,14.60
2018-08-28T01:32:13.173Z,14.60
2018-08-28T01:34:16.374Z,14.60
2018-08-28T01:36:19.579Z,14.60
2018-08-28T01:38:23.170Z,14.60
2018-08-28T01:40:26.522Z,14.60
2018-08-28T01:42:29.683Z,14.60
2018-08-28T01:44:33.302Z,14.50
2018-08-28T01:46:36.452Z,14.50
2018-08-28T01:48:39.958Z,14.50
2018-08-28T01:50:43.152Z,14.50
2018-08-28T01:52:46.316Z,14.50
2018-08-28T01:54:49.740Z,14.50
2018-08-28T01:56:52.993Z,14.50
2018-08-28T01:58:56.618Z,14.50
2018-08-28T02:01:00.309Z,14.50
2018-08-28T02:03:03.484Z,14.40
2018-08-28T02:05:06.917Z,14.40
2018-08-28T02:07:10.099Z,14.40
2018-08-28T02:09:13.256Z,14.40
2018-08-28T02:11:16.744Z,14.40
2018-08-28T02:13:19.965Z,14.40
2018-08-28T02:15:23.312Z,14.30
2018-08-28T02:17:26.804Z,14.30
2018-08-28T02:19:29.977Z,14.30
2018-08-28T02:21:33.176Z,14.30
2018-08-28T02:23:36.384Z,14.30
2018-08-28T02:25:40.032Z,14.30
2018-08-28T02:27:43.212Z,14.30
2018-08-28T02:29:46.392Z,14.20
2018-08-28T02:31:49.585Z,14.20
2018-08-28T02:33:52.960Z,14.20
2018-08-28T02:35:56.166Z,14.20
2018-08-28T02:37:59.420Z,14.20
2018-08-28T02:40:02.629Z,14.20
2018-08-28T02:42:05.939Z,14.20
2018-08-28T02:44:09.783Z,14.20
2018-08-28T02:46:13.280Z,14.20
2018-08-28T02:48:16.452Z,14.20
2018-08-28T02:50:19.629Z,14.30
2018-08-28T02:52:22.827Z,14.30
2018-08-28T02:54:26.281Z,14.30
2018-08-28T02:56:29.486Z,14.40
2018-08-28T02:58:32.673Z,14.40
2018-08-28T03:00:35.919Z,14.40
2018-08-28T03:02:39.121Z,14.40
2018-08-28T03:04:42.616Z,14.50
2018-08-28T03:06:46.303Z,14.50
2018-08-28T03:08:49.660Z,14.60
2018-08-28T03:10:53.156Z,14.60
2018-08-28T03:12:56.380Z,14.60
2018-08-28T03:14:59.567Z,14.70
2018-08-28T03:17:03.101Z,14.60
2018-08-28T03:19:06.650Z,14.60
2018-08-28T03:21:09.889Z,14.60
2018-08-28T03:23:13.080Z,14.60
2018-08-28T03:25:16.618Z,14.60
2018-08-28T03:27:19.958Z,14.60
2018-08-28T03:29:23.118Z,14.60
2018-08-28T03:31:31.312Z,14.60
2018-08-28T03:33:34.532Z,14.60
2018-08-28T03:35:37.772Z,14.60
2018-08-28T03:37:41.000Z,14.60
2018-08-28T03:39:44.244Z,14.70
2018-08-28T03:41:47.456Z,14.60
2018-08-28T03:43:50.654Z,14.70
2018-08-28T03:45:53.828Z,14.70
2018-08-28T03:47:57.208Z,14.70
2018-08-28T03:50:00.370Z,14.70
2018-08-28T03:52:03.564Z,14.70
2018-08-28T03:54:07.085Z,14.70
2018-08-28T03:56:10.343Z,14.60
2018-08-28T03:58:13.536Z,14.60
2018-08-28T04:00:16.948Z,14.60
2018-08-28T04:02:20.136Z,14.60
2018-08-28T04:04:23.534Z,14.50
2018-08-28T04:06:26.709Z,14.50
2018-08-28T04:08:29.882Z,14.50
2018-08-28T04:10:33.088Z,14.50
2018-08-28T04:12:37.016Z,14.50
2018-08-28T04:14:40.220Z,14.60
2018-08-28T04:16:43.430Z,14.60
2018-08-28T04:18:46.648Z,14.60
2018-08-28T04:20:49.800Z,14.60
2018-08-28T04:22:52.996Z,14.50
2018-08-28T04:24:56.213Z,14.50
2018-08-28T04:26:59.408Z,14.50
2018-08-28T04:29:03.129Z,14.50
2018-08-28T04:31:06.581Z,14.50
2018-08-28T04:33:09.764Z,14.40
2018-08-28T04:35:13.310Z,14.40
2018-08-28T04:37:16.527Z,14.40
2018-08-28T04:39:19.936Z,14.30
2018-08-28T04:41:23.115Z,14.30
2018-08-28T04:43:26.702Z,14.30
2018-08-28T04:45:29.870Z,14.30
2018-08-28T04:47:33.033Z,14.20
2018-08-28T04:49:36.300Z,14.20
2018-08-28T04:51:39.488Z,14.20
2018-08-28T04:53:42.703Z,14.20
2018-08-28T04:55:45.904Z,14.20
2018-08-28T04:57:49.141Z,14.20
2018-08-28T04:59:52.374Z,14.20
2018-08-28T05:01:55.548Z,14.20
2018-08-28T05:03:58.958Z,14.20
2018-08-28T05:06:02.148Z,14.30
2018-08-28T05:08:05.521Z,14.30
2018-08-28T05:10:09.327Z,14.30
2018-08-28T05:12:12.501Z,14.30
2018-08-28T05:14:15.685Z,14.40
2018-08-28T05:16:19.519Z,14.40
2018-08-28T05:18:22.728Z,14.40
2018-08-28T05:20:26.108Z,14.50
2018-08-28T05:22:29.576Z,14.50
2018-08-28T05:24:32.845Z,14.60
2018-08-28T05:26:35.989Z,14.60
2018-08-28T05:28:39.184Z,14.60
2018-08-28T05:30:42.402Z,14.60
2018-08-28T05:32:45.593Z,14.70
2018-08-28T05:34:48.841Z,14.80
2018-08-28T05:36:52.309Z,14.80
2018-08-28T05:38:55.729Z,14.80
2018-08-28T05:40:59.049Z,14.90
2018-08-28T05:43:02.613Z,14.90
2018-08-28T05:45:06.393Z,14.90
2018-08-28T05:47:10.276Z,14.90
2018-08-28T05:49:14.084Z,15.00
2018-08-28T05:51:17.260Z,15.00
2018-08-28T05:53:20.421Z,15.00
2018-08-28T05:55:23.623Z,15.00
2018-08-28T05:57:26.796Z,15.00
2018-08-28T05:59:30.375Z,15.00
2018-08-28T06:01:33.728Z,15.10
2018-08-28T06:03:37.172Z,15.20
2018-08-28T06:05:40.482Z,15.10
2018-08-28T06:07:43.676Z,15.20
2018-08-28T06:09:46.840Z,15.20
2018-08-28T06:11:50.040Z,15.20
2018-08-28T06:13:53.241Z,15.20
2018-08-28T06:15:56.589Z,15.20
2018-08-28T06:18:00.053Z,15.10
2018-08-28T06:20:03.333Z,15.20
2018-08-28T06:22:06.920Z,15.30
2018-08-28T06:24:10.421Z,15.30
2018-08-28T06:26:13.659Z,15.40
2018-08-28T06:28:17.059Z,15.40
2018-08-28T06:30:20.276Z,15.40
2018-08-28T06:32:23.462Z,15.40
2018-08-28T06:34:26.628Z,15.40
2018-08-28T06:36:29.809Z,15.50
2018-08-28T06:38:33.013Z,15.50
2018-08-28T06:40:36.664Z,15.50
2018-08-28T06:42:40.043Z,15.50
2018-08-28T06:44:43.224Z,15.60
2018-08-28T06:46:46.849Z,15.50
2018-08-28T06:48:50.222Z,15.60
2018-08-28T06:50:53.964Z,15.70
2018-08-28T06:52:57.512Z,15.70
2018-08-28T06:55:01.020Z,15.70
2018-08-28T06:57:04.192Z,15.70
2018-08-28T06:59:07.491Z,15.70
2018-08-28T07:01:10.951Z,15.70
2018-08-28T07:03:14.129Z,15.60
2018-08-28T07:05:17.332Z,15.60
2018-08-28T07:07:20.494Z,15.60
2018-08-28T07:09:24.145Z,15.60
2018-08-28T07:11:27.340Z,15.70
2018-08-28T07:13:31.061Z,15.60
2018-08-28T07:15:34.928Z,15.70
2018-08-28T07:17:38.128Z,15.80
2018-08-28T07:19:41.348Z,15.90
2018-08-28T07:21:44.689Z,15.90
2018-08-28T07:23:47.925Z,16.00
2018-08-28T07:25:51.522Z,16.00
2018-08-28T07:27:54.672Z,16.10
2018-08-28T07:29:57.849Z,16.10
2018-08-28T07:32:01.049Z,16.00
2018-08-28T07:34:04.607Z,16.10
2018-08-28T07:36:07.796Z,16.20
2018-08-28T07:38:11.989Z,16.40
2018-08-28T07:40:15.258Z,16.30
2018-08-28T07:42:18.524Z,16.30
2018-08-28T07:44:22.245Z,16.40
2018-08-28T07:46:25.440Z,16.40
2018-08-28T07:48:28.723Z,16.50
2018-08-28T07:50:32.004Z,16.40
2018-08-28T07:52:35.193Z,16.50
2018-08-28T07:54:38.373Z,16.60
2018-08-28T07:56:41.549Z,16.60
2018-08-28T07:58:45.125Z,16.80
2018-08-28T08:00:48.620Z,16.90
2018-08-28T08:02:51.802Z,17.00
2018-08-28T08:04:55.004Z,16.80
2018-08-28T08:06:58.236Z,16.70
2018-08-28T08:09:01.404Z,16.70
2018-08-28T08:11:05.024Z,16.70
2018-08-28T08:13:08.185Z,16.80
2018-08-28T08:15:11.356Z,17.00
2018-08-28T08:17:14.544Z,16.90
2018-08-28T08:19:17.826Z,16.90
2018-08-28T08:21:21.860Z,16.90
2018-08-28T08:23:25.051Z,16.90
2018-08-28T08:25:28.541Z,16.90
2018-08-28T08:27:31.716Z,17.10
2018-08-28T08:29:34.885Z,17.10
2018-08-28T08:31:38.711Z,17.00
2018-08-28T08:33:41.920Z,17.10
2018-08-28T08:35:45.168Z,17.20
2018-08-28T08:37:48.346Z,17.30
2018-08-28T08:39:51.569Z,17.40
2018-08-28T08:41:54.914Z,17.60
2018-08-28T08:43:58.245Z,17.60
2018-08-28T08:46:01.737Z,17.60
2018-08-28T08:48:04.909Z,17.80
2018-08-28T08:50:08.555Z,17.90
2018-08-28T08:52:11.732Z,18.20
2018-08-28T08:54:14.912Z,18.40
2018-08-28T08:56:18.293Z,18.30
2018-08-28T08:58:21.460Z,18.40
2018-08-28T09:00:24.745Z,18.50
2018-08-28T09:02:28.264Z,18.30
2018-08-28T09:04:31.509Z,18.30
2018-08-28T09:06:35.026Z,18.50
2018-08-28T09:08:38.234Z,18.60
2018-08-28T09:10:41.397Z,18.50
2018-08-28T09:12:44.592Z,18.60
2018-08-28T09:14:47.776Z,18.80
2018-08-28T09:16:50.948Z,18.90
2018-08-28T09:18:54.132Z,18.90
2018-08-28T09:20:57.334Z,19.00
2018-08-28T09:23:00.540Z,19.20
2018-08-28T09:25:04.064Z,19.20
2018-08-28T09:27:07.229Z,19.20
2018-08-28T09:29:10.406Z,19.30
2018-08-28T09:31:14.290Z,19.30
2018-08-28T09:33:17.592Z,19.20
2018-08-28T09:35:20.828Z,19.20
2018-08-28T09:37:24.296Z,19.30
2018-08-28T09:39:27.520Z,19.50
2018-08-28T09:41:31.168Z,19.60
2018-08-28T09:43:34.500Z,19.70
2018-08-28T09:45:37.720Z,19.80
2018-08-28T09:47:40.884Z,19.90
2018-08-28T09:49:44.076Z,20.10
2018-08-28T09:51:47.567Z,19.80
2018-08-28T09:53:51.422Z,19.70
2018-08-28T09:55:54.933Z,19.80
2018-08-28T09:57:58.133Z,19.60
2018-08-28T10:00:01.331Z,19.50
2018-08-28T10:02:04.953Z,19.50
2018-08-28T10:04:08.356Z,19.40
2018-08-28T10:06:12.204Z,19.20
2018-08-28T10:08:15.396Z,19.10
2018-08-28T10:10:18.808Z,19.10
2018-08-28T10:12:22.284Z,19.10
2018-08-28T10:14:25.826Z,19.10
2018-08-28T10:16:29.180Z,19.10
2018-08-28T10:18:32.677Z,19.10
2018-08-28T10:20:36.022Z,19.10
2018-08-28T10:22:39.852Z,19.10
2018-08-28T10:24:43.036Z,19.10
2018-08-28T10:26:46.237Z,19.20
2018-08-28T10:28:49.440Z,19.20
2018-08-28T10:30:52.944Z,19.30
2018-08-28T10:32:56.340Z,19.40
2018-08-28T10:34:59.794Z,19.60
2018-08-28T10:37:03.132Z,19.80
2018-08-28T10:39:07.916Z,19.80
2018-08-28T10:41:11.156Z,19.70
2018-08-28T10:43:14.373Z,19.80
2018-08-28T10:45:17.613Z,19.80
2018-08-28T10:47:21.126Z,19.80
2018-08-28T10:49:24.284Z,19.90
2018-08-28T10:51:27.497Z,20.00
2018-08-28T10:53:30.709Z,20.10
2018-08-28T10:55:33.885Z,20.20
2018-08-28T10:57:37.116Z,20.20
2018-08-28T10:59:40.500Z,20.10
2018-08-28T11:01:43.680Z,20.40
2018-08-28T11:03:46.940Z,20.50
2018-08-28T11:05:50.172Z,20.60
2018-08-28T11:07:53.398Z,20.40
2018-08-28T11:09:56.768Z,20.50
2018-08-28T11:12:00.246Z,20.50
2018-08-28T11:14:03.768Z,20.20
2018-08-28T11:16:07.015Z,20.20
2018-08-28T11:18:10.328Z,20.10
2018-08-28T11:20:13.848Z,20.10
2018-08-28T11:22:17.271Z,20.20
2018-08-28T11:24:20.951Z,20.30
2018-08-28T11:26:24.120Z,20.40
2018-08-28T11:28:27.296Z,20.70
2018-08-28T11:30:31.080Z,21.00
2018-08-28T11:32:34.257Z,21.00
2018-08-28T11:34:37.436Z,21.50
2018-08-28T11:36:40.733Z,22.10
2018-08-28T11:38:44.327Z,22.50
2018-08-28T11:40:48.062Z,22.60
2018-08-28T11:42:51.700Z,22.50
2018-08-28T11:44:55.278Z,22.30
2018-08-28T11:46:58.669Z,22.20
2018-08-28T11:49:02.340Z,22.10
2018-08-28T11:51:05.552Z,21.90
2018-08-28T11:53:08.861Z,21.90
2018-08-28T11:55:12.921Z,21.80
2018-08-28T11:57:16.093Z,21.70
2018-08-28T11:59:19.269Z,21.80
2018-08-28T12:01:22.900Z,22.00
2018-08-28T12:03:26.114Z,21.90
2018-08-28T12:05:29.327Z,21.80
2018-08-28T12:07:32.779Z,21.40
2018-08-28T12:09:36.089Z,21.40
2018-08-28T12:11:39.264Z,21.60
2018-08-28T12:13:42.457Z,21.50
2018-08-28T12:15:46.228Z,21.20
2018-08-28T12:17:49.464Z,21.20
2018-08-28T12:19:52.641Z,20.70
2018-08-28T12:21:56.105Z,20.60
2018-08-28T12:23:59.549Z,20.60
2018-08-28T12:26:02.929Z,20.60
2018-08-28T12:28:06.452Z,20.70
2018-08-28T12:30:11.105Z,20.70
2018-08-28T12:32:14.284Z,20.70
2018-08-28T12:34:17.524Z,20.60
2018-08-28T12:36:20.716Z,20.40
2018-08-28T12:38:23.934Z,20.30
2018-08-28T12:40:27.180Z,20.30
2018-08-28T12:42:31.869Z,20.30
2018-08-28T12:44:35.089Z,20.30
2018-08-28T12:46:38.260Z,20.30
2018-08-28T12:48:41.740Z,20.20
2018-08-28T12:50:44.912Z,20.10
2018-08-28T12:52:48.091Z,20.10
2018-08-28T12:54:51.849Z,20.20
2018-08-28T12:56:55.517Z,20.00
2018-08-28T12:58:58.700Z,20.00
2018-08-28T13:01:01.992Z,20.10
2018-08-28T13:03:05.874Z,20.20
2018-08-28T13:05:09.732Z,20.30
2018-08-28T13:07:12.965Z,20.50
2018-08-28T13:09:16.355Z,20.60
2018-08-28T13:11:19.528Z,20.60
2018-08-28T13:13:23.072Z,20.50
2018-08-28T13:15:26.535Z,20.40
2018-08-28T13:17:29.828Z,20.40
2018-08-28T13:19:33.016Z,20.50
2018-08-28T13:21:36.256Z,20.50
2018-08-28T13:23:39.811Z,20.60
2018-08-28T13:25:43.422Z,20.70
2018-08-28T13:27:47.111Z,20.80
2018-08-28T13:29:50.304Z,20.80
2018-08-28T13:31:53.668Z,20.90
2018-08-28T13:33:56.996Z,21.00
2018-08-28T13:36:00.197Z,21.10
2018-08-28T13:38:03.397Z,20.90
2018-08-28T13:40:08.312Z,20.90
2018-08-28T13:42:11.532Z,21.00
2018-08-28T13:44:14.744Z,21.10
2018-08-28T13:46:18.378Z,21.00
2018-08-28T13:48:21.564Z,21.10
2018-08-28T13:50:24.740Z,21.10
2018-08-28T13:52:27.960Z,21.10
2018-08-28T13:54:31.267Z,21.20
2018-08-28T13:56:34.548Z,20.90
2018-08-28T13:58:38.032Z,20.70
2018-08-28T14:00:41.323Z,20.80
2018-08-28T14:02:44.867Z,20.70
2018-08-28T14:04:48.089Z,20.70
2018-08-28T14:06:51.639Z,20.90
2018-08-28T14:08:54.977Z,21.00
2018-08-28T14:10:58.161Z,21.00
2018-08-28T14:13:01.664Z,20.80
2018-08-28T14:15:05.011Z,20.70
2018-08-28T14:17:08.468Z,20.80
2018-08-28T14:19:11.649Z,20.80
2018-08-28T14:21:14.837Z,20.90
2018-08-28T14:23:18.256Z,20.70
2018-08-28T14:25:21.464Z,20.50
2018-08-28T14:27:24.804Z,20.50
2018-08-28T14:29:28.547Z,20.60
2018-08-28T14:31:31.854Z,20.60
2018-08-28T14:33:35.238Z,20.50
2018-08-28T14:35:39.332Z,20.50
2018-08-28T14:37:42.993Z,20.50
2018-08-28T14:39:46.722Z,20.50
2018-08-28T14:41:50.267Z,20.50
2018-08-28T14:43:53.480Z,20.50
2018-08-28T14:45:56.905Z,20.50
2018-08-28T14:48:00.554Z,20.50
2018-08-28T14:50:04.234Z,20.40
2018-08-28T14:52:07.637Z,20.60
2018-08-28T14:54:10.984Z,20.60
2018-08-28T14:56:14.369Z,20.70
2018-08-28T14:58:17.544Z,20.80
2018-08-28T15:00:20.954Z,21.00
2018-08-28T15:02:24.325Z,21.10
2018-08-28T15:04:28.193Z,21.00
2018-08-28T15:06:31.702Z,21.00
2018-08-28T15:08:35.065Z,21.10
2018-08-28T15:10:38.576Z,21.20
2018-08-28T15:12:41.948Z,21.20
2018-08-28T15:14:45.499Z,21.30
2018-08-28T15:16:48.992Z,21.30
2018-08-28T15:18:52.585Z,21.20
2018-08-28T15:20:55.778Z,21.10
2018-08-28T15:22:59.454Z,21.10
2018-08-28T15:25:02.628Z,21.10
2018-08-28T15:27:06.159Z,21.10
2018-08-28T15:29:10.104Z,21.10
2018-08-28T15:31:13.314Z,21.20
2018-08-28T15:33:16.472Z,21.20
2018-08-28T15:35:19.656Z,21.20
2018-08-28T15:37:23.044Z,21.10
2018-08-28T15:39:26.520Z,21.00
2018-08-28T15:41:30.388Z,20.90
2018-08-28T15:43:33.596Z,20.90
2018-08-28T15:45:36.812Z,20.90
2018-08-28T15:47:40.364Z,21.10
2018-08-28T15:49:43.552Z,21.10
2018-08-28T15:51:46.787Z,21.10
2018-08-28T15:53:50.120Z,20.80
2018-08-28T15:55:53.616Z,20.90
2018-08-28T15:57:56.792Z,20.90
2018-08-28T16:00:00.209Z,20.90
2018-08-28T16:02:03.597Z,20.90
2018-08-28T16:04:10.192Z,20.80
2018-08-28T16:06:13.376Z,20.80
2018-08-28T16:08:16.536Z,20.90
2018-08-28T16:10:21.604Z,21.00
2018-08-28T16:12:24.817Z,21.20
2018-08-28T16:14:28.344Z,21.20
2018-08-28T16:16:31.504Z,21.10
2018-08-28T16:18:35.702Z,21.00
2018-08-28T16:20:39.223Z,20.80
2018-08-28T16:22:52.801Z,20.70
2018-08-28T16:24:56.014Z,20.60
2018-08-28T16:26:59.199Z,20.60
2018-08-28T16:29:02.568Z,20.60
2018-08-28T16:31:06.140Z,20.60
2018-08-28T16:33:09.340Z,20.50
2018-08-28T16:35:12.596Z,20.60
2018-08-28T16:37:15.804Z,20.50
2018-08-28T16:39:18.992Z,20.50
2018-08-28T16:41:22.177Z,20.40
2018-08-28T16:43:25.592Z,20.40
2018-08-28T16:45:28.791Z,20.40
2018-08-28T16:47:32.208Z,20.40
2018-08-28T16:49:35.973Z,20.30
2018-08-28T16:51:39.164Z,20.30
2018-08-28T16:53:42.340Z,20.30
2018-08-28T16:55:45.844Z,20.30
2018-08-28T16:57:49.223Z,20.30
2018-08-28T16:59:52.424Z,20.30
2018-08-28T17:01:56.250Z,20.20
2018-08-28T17:03:59.883Z,20.20
2018-08-28T17:06:03.404Z,20.10
2018-08-28T17:08:06.652Z,20.10
2018-08-28T17:10:10.178Z,20.10
2018-08-28T17:12:13.433Z,20.10
2018-08-28T17:14:17.376Z,20.10
2018-08-28T17:16:20.560Z,20.10
2018-08-28T17:18:23.744Z,20.10
2018-08-28T17:20:27.248Z,20.00
2018-08-28T17:22:30.416Z,20.00
2018-08-28T17:24:33.654Z,19.80
2018-08-28T17:26:37.228Z,19.60
2018-08-28T17:28:40.427Z,19.50
2018-08-28T17:30:43.591Z,19.40
2018-08-28T17:32:47.092Z,19.40
2018-08-28T17:34:50.344Z,19.40
2018-08-28T17:36:53.588Z,19.40
2018-08-28T17:38:56.969Z,19.40
2018-08-28T17:41:00.160Z,19.30
2018-08-28T17:43:03.353Z,19.20
2018-08-28T17:45:07.423Z,19.20
2018-08-28T17:47:10.581Z,19.20
2018-08-28T17:49:13.830Z,19.20
2018-08-28T17:51:17.418Z,19.20
2018-08-28T17:53:20.687Z,19.10
2018-08-28T17:55:23.877Z,19.20
2018-08-28T17:57:27.399Z,19.20
2018-08-28T17:59:30.576Z,19.10
2018-08-28T18:01:33.752Z,19.10
2018-08-28T18:03:36.944Z,19.10
2018-08-28T18:05:40.208Z,19.00
2018-08-28T18:07:43.374Z,19.00
2018-08-28T18:09:46.818Z,19.00
2018-08-28T18:11:50.452Z,19.00
2018-08-28T18:13:53.751Z,18.90
2018-08-28T18:15:56.971Z,18.90
2018-08-28T18:18:00.158Z,18.90
2018-08-28T18:20:03.327Z,18.90
2018-08-28T18:22:06.866Z,18.90
2018-08-28T18:24:10.248Z,18.90
2018-08-28T18:26:13.426Z,18.80
2018-08-28T18:28:16.592Z,18.80
2018-08-28T18:30:19.776Z,18.80
2018-08-28T18:32:22.965Z,18.80
2018-08-28T18:34:26.662Z,18.80
2018-08-28T18:36:30.087Z,18.80
2018-08-28T18:38:33.429Z,18.80
2018-08-28T18:40:36.652Z,18.80
2018-08-28T18:42:39.873Z,18.80
2018-08-28T18:44:43.141Z,18.70
2018-08-28T18:46:46.586Z,18.70
2018-08-28T18:48:50.188Z,18.70
2018-08-28T18:50:53.629Z,18.70
2018-08-28T18:52:56.876Z,18.70
2018-08-28T18:55:00.053Z,18.70
2018-08-28T18:57:03.532Z,18.70
2018-08-28T18:59:06.793Z,18.70
2018-08-28T19:01:09.973Z,18.70
2018-08-28T19:03:13.914Z,18.70
2018-08-28T19:05:17.656Z,18.70
2018-08-28T19:07:20.832Z,18.70
2018-08-28T19:09:24.025Z,18.70
2018-08-28T19:11:27.392Z,18.60
2018-08-28T19:13:30.934Z,18.60
2018-08-28T19:15:34.167Z,18.60
2018-08-28T19:17:37.377Z,18.60
2018-08-28T19:19:40.552Z,18.60
2018-08-28T19:21:43.735Z,18.50
2018-08-28T19:23:46.920Z,18.50
2018-08-28T19:25:50.338Z,18.50
2018-08-28T19:27:53.705Z,18.50
2018-08-28T19:29:56.930Z,18.50
2018-08-28T19:32:00.096Z,18.50
2018-08-28T19:34:03.293Z,18.50
2018-08-28T19:36:06.925Z,18.50
2018-08-28T19:38:10.135Z,18.50
2018-08-28T19:40:13.692Z,18.40
2018-08-28T19:42:16.856Z,18.40
2018-08-28T19:44:20.419Z,18.50
2018-08-28T19:46:23.688Z,18.40
2018-08-28T19:48:26.934Z,18.50
2018-08-28T19:50:30.300Z,18.50
2018-08-28T19:52:33.829Z,18.40
2018-08-28T19:54:37.012Z,18.40
2018-08-28T19:56:40.289Z,18.50
2018-08-28T19:58:43.543Z,18.40
2018-08-28T20:00:47.135Z,18.30
2018-08-28T20:02:50.549Z,18.30
2018-08-28T20:04:54.009Z,18.30
2018-08-28T20:06:57.501Z,18.40
2018-08-28T20:09:00.692Z,18.30
2018-08-28T20:11:04.641Z,18.30
2018-08-28T20:13:08.150Z,18.30
2018-08-28T20:15:11.733Z,18.40
2018-08-28T20:17:15.245Z,18.40
2018-08-28T20:19:18.589Z,18.40
2018-08-28T20:21:22.097Z,18.40
2018-08-28T20:23:25.836Z,18.40
2018-08-28T20:25:29.305Z,18.40
2018-08-28T20:27:32.518Z,18.30
2018-08-28T20:29:35.755Z,18.30
2018-08-28T20:31:39.121Z,18.30
2018-08-28T20:33:42.321Z,18.30
2018-08-28T20:35:45.518Z,18.20
2018-08-28T20:37:48.745Z,18.20
2018-08-28T20:39:52.182Z,18.30
2018-08-28T20:41:56.079Z,18.30
2018-08-28T20:43:59.434Z,18.30
2018-08-28T20:46:02.605Z,18.30
2018-08-28T20:48:06.397Z,18.30
2018-08-28T20:50:09.917Z,18.20
2018-08-28T20:52:13.092Z,18.20
2018-08-28T20:54:16.476Z,18.20
2018-08-28T20:56:19.708Z,18.20
2018-08-28T20:58:22.885Z,18.20
2018-08-28T21:00:28.092Z,18.20
2018-08-28T21:02:31.324Z,18.20
2018-08-28T21:04:34.548Z,18.10
2018-08-28T21:06:38.355Z,18.10
2018-08-28T21:08:41.691Z,18.10
2018-08-28T21:10:44.873Z,18.00
2018-08-28T21:12:48.134Z,18.00
2018-08-28T21:14:51.512Z,18.00
2018-08-28T21:16:54.791Z,18.10
2018-08-28T21:18:58.000Z,18.10
2018-08-28T21:21:01.473Z,18.00
2018-08-28T21:23:04.975Z,18.00
2018-08-28T21:25:08.599Z,18.00
2018-08-28T21:27:12.114Z,18.00
2018-08-28T21:29:15.307Z,17.90
2018-08-28T21:31:18.689Z,17.90
2018-08-28T21:33:21.851Z,17.80
2018-08-28T21:35:25.401Z,17.90
2018-08-28T21:37:29.021Z,17.80
2018-08-28T21:39:32.172Z,17.90
2018-08-28T21:41:35.660Z,17.90
2018-08-28T21:43:38.900Z,17.80
2018-08-28T21:45:42.077Z,17.80
2018-08-28T21:47:45.276Z,17.70
2018-08-28T21:49:48.684Z,17.70
2018-08-28T21:51:52.200Z,17.80
2018-08-28T21:53:55.720Z,17.70
2018-08-28T21:55:59.276Z,17.80
2018-08-28T21:58:02.842Z,17.70
2018-08-28T22:00:06.499Z,17.70
2018-08-28T22:02:10.063Z,17.80
2018-08-28T22:04:13.364Z,17.80
2018-08-28T22:06:21.978Z,17.80
2018-08-28T22:08:25.776Z,17.80
2018-08-28T22:10:29.817Z,17.70
2018-08-28T22:12:33.208Z,17.70
2018-08-28T22:14:37.292Z,17.70
2018-08-28T22:16:40.488Z,17.60
2018-08-28T22:18:43.684Z,17.60
2018-08-28T22:20:52.577Z,17.70
2018-08-28T22:22:55.784Z,17.60
2018-08-28T22:24:59.314Z,17.60
2018-08-28T22:27:02.508Z,17.60
2018-08-28T22:29:05.693Z,17.40
2018-08-28T22:31:09.211Z,17.40
2018-08-28T22:33:12.588Z,17.40
2018-08-28T22:35:16.085Z,17.30
2018-08-28T22:37:19.268Z,17.20
2018-08-28T22:39:22.452Z,17.20
2018-08-28T22:41:25.977Z,17.10
2018-08-28T22:43:29.488Z,16.90
2018-08-28T22:45:33.028Z,16.90
2018-08-28T22:47:36.204Z,16.80
2018-08-28T22:49:39.497Z,16.70
2018-08-28T22:51:43.352Z,16.60
2018-08-28T22:53:46.536Z,16.40
2018-08-28T22:55:49.742Z,16.40
2018-08-28T22:57:53.564Z,16.40
2018-08-28T22:59:56.744Z,16.40
2018-08-28T23:01:59.932Z,16.40
2018-08-28T23:04:03.348Z,16.40
2018-08-28T23:06:07.183Z,16.40
2018-08-28T23:08:10.716Z,16.40
2018-08-28T23:10:14.424Z,16.30
2018-08-28T23:12:17.623Z,16.20
2018-08-28T23:14:20.976Z,16.20
2018-08-28T23:16:24.606Z,16.10
2018-08-28T23:18:27.962Z,16.10
2018-08-28T23:20:31.339Z,16.10
2018-08-28T23:22:34.761Z,16.00
2018-08-28T23:24:38.321Z,16.00
2018-08-28T23:26:41.489Z,16.00
2018-08-28T23:28:44.934Z,15.90
2018-08-28T23:30:48.132Z,15.80
2018-08-28T23:32:51.311Z,15.80
2018-08-28T23:34:54.812Z,15.80
2018-08-28T23:36:58.354Z,15.70
2018-08-28T23:39:01.524Z,15.70
2018-08-28T23:41:05.732Z,15.70
2018-08-28T23:43:08.949Z,15.60
2018-08-28T23:45:12.123Z,15.50
2018-08-28T23:47:15.316Z,15.60
2018-08-28T23:49:18.496Z,15.40
2018-08-28T23:51:21.699Z,15.40
2018-08-28T23:53:25.244Z,15.50
2018-08-28T23:55:28.456Z,15.50
2018-08-28T23:57:31.727Z,15.40
2018-08-28T23:59:34.976Z,15.40
